Time;durP1;ratioP1;P1;durP2;ratioP2;P2;SDS_P1;SDS_P2;PMS_P1;PMS_P2;Temp;Humidity;BMP_temperature;BMP_pressure;BME280_temperature;BME280_humidity;BME280_pressure;Samples;Min_cycle;Max_cycle;Signal;HPM_P1;HPM_P2
2023/09/06 00:02:07;;;;;;;5.40;3.45;;;13.90;99.90;;;;;;5018070;28;20061;-64
2023/09/06 00:04:33;;;;;;;2.97;2.40;;;13.90;99.90;;;;;;5014795;28;20049;-64
2023/09/06 00:06:59;;;;;;;3.05;2.55;;;13.90;99.90;;;;;;5012422;28;20022;-64
2023/09/06 00:09:25;;;;;;;4.82;2.60;;;13.80;99.90;;;;;;5015917;28;20021;-63
2023/09/06 00:11:50;;;;;;;2.85;2.25;;;13.80;99.90;;;;;;5013047;28;20052;-63
2023/09/06 00:14:16;;;;;;;3.50;2.75;;;13.80;99.90;;;;;;5012239;28;20042;-63
2023/09/06 00:16:46;;;;;;;3.15;2.67;;;13.70;99.90;;;;;;5015886;28;20108;-65
2023/09/06 00:19:14;;;;;;;3.97;2.33;;;13.70;99.90;;;;;;5009252;28;20029;-65
2023/09/06 00:21:42;;;;;;;4.93;2.63;;;13.70;99.90;;;;;;5015503;28;20336;-64
2023/09/06 00:24:12;;;;;;;5.38;3.20;;;13.70;99.90;;;;;;5014715;28;20418;-64
2023/09/06 00:26:37;;;;;;;3.13;2.78;;;13.60;99.90;;;;;;5012307;28;20040;-65
2023/09/06 00:29:04;;;;;;;4.90;2.85;;;13.70;99.90;;;;;;5014543;28;20025;-65
2023/09/06 00:31:31;;;;;;;4.18;3.00;;;13.60;99.90;;;;;;5011815;28;20050;-65
2023/09/06 00:33:56;;;;;;;3.63;2.70;;;13.60;99.90;;;;;;5015211;28;20049;-64
2023/09/06 00:36:22;;;;;;;4.15;2.72;;;13.60;99.90;;;;;;5021179;28;20064;-64
2023/09/06 00:38:47;;;;;;;5.53;3.25;;;13.60;99.90;;;;;;5013088;28;20393;-65
2023/09/06 00:41:13;;;;;;;2.95;2.58;;;13.50;99.90;;;;;;5013548;28;20176;-65
2023/09/06 00:43:38;;;;;;;3.22;2.90;;;13.50;99.90;;;;;;5014297;28;20029;-64
2023/09/06 00:46:07;;;;;;;9.35;3.33;;;13.50;99.90;;;;;;5011763;28;20427;-63
2023/09/06 00:48:34;;;;;;;3.95;3.10;;;13.50;99.90;;;;;;5013604;28;20679;-63
2023/09/06 00:51:01;;;;;;;4.20;3.00;;;13.50;99.90;;;;;;5013118;28;20081;-64
2023/09/06 00:53:27;;;;;;;3.40;2.80;;;13.40;99.90;;;;;;5011505;28;20188;-64
2023/09/06 00:55:53;;;;;;;3.38;2.90;;;13.40;99.90;;;;;;5010363;28;20526;-65
2023/09/06 00:58:20;;;;;;;2.70;2.50;;;13.40;99.90;;;;;;5012348;28;20035;-63
2023/09/06 01:00:47;;;;;;;3.22;2.78;;;13.40;99.90;;;;;;5013250;28;20061;-64
2023/09/06 01:03:13;;;;;;;3.47;2.80;;;13.30;99.90;;;;;;5011680;28;20054;-64
2023/09/06 01:05:46;;;;;;;3.70;2.95;;;13.30;99.90;;;;;;5013362;28;20032;-64
2023/09/06 01:08:18;;;;;;;3.30;2.85;;;13.30;99.90;;;;;;5016452;28;20041;-65
2023/09/06 01:10:44;;;;;;;3.95;3.17;;;13.30;99.90;;;;;;5016258;28;20483;-65
2023/09/06 01:13:10;;;;;;;3.25;2.80;;;13.30;99.90;;;;;;5017276;28;20033;-65
2023/09/06 01:15:39;;;;;;;6.22;2.72;;;13.20;99.90;;;;;;5010239;28;20110;-64
2023/09/06 01:18:07;;;;;;;4.22;2.97;;;13.20;99.90;;;;;;5018029;28;20053;-65
2023/09/06 01:20:49;;;;;;;6.20;2.85;;;13.20;99.90;;;;;;5025527;28;20028;-64
2023/09/06 01:23:32;;;;;;;3.42;2.75;;;13.20;99.90;;;;;;5017490;28;20564;-64
2023/09/06 01:25:57;;;;;;;2.92;2.63;;;13.20;99.90;;;;;;5015422;28;20029;-64
2023/09/06 01:28:27;;;;;;;2.90;2.58;;;13.10;99.90;;;;;;5017161;28;20064;-63
2023/09/06 01:30:53;;;;;;;3.28;2.53;;;13.10;99.90;;;;;;5018517;28;20021;-65
2023/09/06 01:33:19;;;;;;;4.80;3.05;;;13.10;99.90;;;;;;5014481;28;20046;-64
2023/09/06 01:35:44;;;;;;;4.72;3.53;;;13.10;99.90;;;;;;5015226;28;20022;-64
2023/09/06 01:38:11;;;;;;;3.20;2.85;;;13.00;99.90;;;;;;5021135;28;20083;-65
2023/09/06 01:40:37;;;;;;;3.65;2.88;;;13.00;99.90;;;;;;5017243;28;20036;-64
2023/09/06 01:43:03;;;;;;;3.42;2.85;;;13.00;99.90;;;;;;5014811;28;20030;-64
2023/09/06 01:45:29;;;;;;;4.05;2.90;;;13.00;99.90;;;;;;5018123;28;20076;-64
2023/09/06 01:47:55;;;;;;;3.47;3.00;;;13.00;99.90;;;;;;5018738;28;20024;-64
2023/09/06 01:50:21;;;;;;;4.78;2.88;;;13.00;99.90;;;;;;5015875;28;20108;-64
2023/09/06 01:52:47;;;;;;;3.80;3.15;;;13.00;99.90;;;;;;5009824;28;20099;-63
2023/09/06 01:55:12;;;;;;;4.05;3.03;;;12.90;99.90;;;;;;5022548;28;20057;-64
2023/09/06 01:57:38;;;;;;;5.32;3.15;;;12.90;99.90;;;;;;5032194;28;20512;-65
2023/09/06 02:00:23;;;;;;;3.83;2.95;;;12.90;99.90;;;;;;5020415;28;20080;-64
2023/09/06 02:02:49;;;;;;;5.72;2.80;;;12.80;99.90;;;;;;5025655;28;20033;-64
2023/09/06 02:05:15;;;;;;;3.58;2.90;;;12.80;99.90;;;;;;5015869;28;20029;-62
2023/09/06 02:07:41;;;;;;;3.97;3.28;;;12.80;99.90;;;;;;5024592;28;20104;-62
2023/09/06 02:10:07;;;;;;;5.25;3.15;;;12.80;99.90;;;;;;5019541;28;20018;-63
2023/09/06 02:12:33;;;;;;;4.13;3.38;;;12.80;99.90;;;;;;5016949;28;20018;-62
2023/09/06 02:14:59;;;;;;;4.78;3.20;;;12.80;99.90;;;;;;5017062;28;20040;-67
2023/09/06 02:17:24;;;;;;;4.90;3.63;;;12.70;99.90;;;;;;5015105;28;20637;-67
2023/09/06 02:19:50;;;;;;;4.55;2.95;;;12.70;99.90;;;;;;5012891;28;20033;-67
2023/09/06 02:22:16;;;;;;;3.72;3.05;;;12.70;99.90;;;;;;5020242;28;20037;-66
2023/09/06 02:24:41;;;;;;;5.20;2.92;;;12.60;99.90;;;;;;5018242;28;20438;-67
2023/09/06 02:27:10;;;;;;;5.38;3.85;;;12.60;99.90;;;;;;5015794;28;20024;-67
2023/09/06 02:29:35;;;;;;;4.63;3.55;;;12.60;99.90;;;;;;5021194;28;20022;-67
2023/09/06 02:32:01;;;;;;;4.35;3.60;;;12.60;99.90;;;;;;5016959;28;20057;-67
2023/09/06 02:34:26;;;;;;;3.95;3.13;;;12.60;99.90;;;;;;5017656;28;20436;-67
2023/09/06 02:36:52;;;;;;;4.05;3.20;;;12.60;99.90;;;;;;5014913;28;20044;-67
2023/09/06 02:39:18;;;;;;;5.25;3.88;;;12.50;99.90;;;;;;5014696;28;20088;-66
2023/09/06 02:41:45;;;;;;;6.43;3.45;;;12.50;99.90;;;;;;5009195;28;20041;-67
2023/09/06 02:44:10;;;;;;;4.15;3.22;;;12.50;99.90;;;;;;5015600;28;20029;-67
2023/09/06 02:46:36;;;;;;;4.30;3.40;;;12.50;99.90;;;;;;5019542;28;20029;-67
2023/09/06 02:49:11;;;;;;;5.20;3.58;;;12.40;99.90;;;;;;5015432;28;20030;-66
2023/09/06 02:51:37;;;;;;;5.03;3.28;;;12.40;99.90;;;;;;5017701;28;20017;-66
2023/09/06 02:54:03;;;;;;;4.45;3.40;;;12.40;99.90;;;;;;5013669;28;20030;-66
2023/09/06 02:56:28;;;;;;;4.38;3.60;;;12.40;99.90;;;;;;5016417;28;20091;-65
2023/09/06 02:58:54;;;;;;;6.85;3.42;;;12.40;99.90;;;;;;5015536;28;20032;-67
2023/09/06 03:01:19;;;;;;;4.32;3.25;;;12.30;99.90;;;;;;5013527;28;20091;-67
2023/09/06 03:03:47;;;;;;;5.75;3.22;;;12.30;99.90;;;;;;5016415;28;20041;-67
2023/09/06 03:06:17;;;;;;;4.30;3.35;;;12.30;99.90;;;;;;5009004;28;20112;-67
2023/09/06 03:08:45;;;;;;;6.25;3.92;;;12.30;99.90;;;;;;5012674;28;20066;-67
2023/09/06 03:11:14;;;;;;;4.07;3.35;;;12.30;99.90;;;;;;5016564;28;20059;-67
2023/09/06 03:13:42;;;;;;;3.67;3.20;;;12.20;99.90;;;;;;5015169;28;20033;-67
2023/09/06 03:16:07;;;;;;;3.20;2.90;;;12.30;99.90;;;;;;5018103;28;20059;-67
2023/09/06 03:18:33;;;;;;;5.10;3.83;;;12.20;99.90;;;;;;5013977;28;20704;-67
2023/09/06 03:21:04;;;;;;;4.60;3.10;;;12.20;99.90;;;;;;5015763;28;20026;-68
2023/09/06 03:23:32;;;;;;;4.32;3.78;;;12.20;99.90;;;;;;5015348;28;20493;-67
2023/09/06 03:25:58;;;;;;;7.78;3.65;;;12.20;99.90;;;;;;5009939;28;20022;-68
2023/09/06 03:28:28;;;;;;;5.88;3.92;;;12.20;99.90;;;;;;5009570;28;20034;-67
2023/09/06 03:30:58;;;;;;;7.90;3.38;;;12.20;99.90;;;;;;5015750;28;20038;-67
2023/09/06 03:33:27;;;;;;;5.47;3.67;;;12.10;99.90;;;;;;5007260;28;20609;-67
2023/09/06 03:35:53;;;;;;;4.72;3.72;;;12.20;99.90;;;;;;5013919;28;20033;-67
2023/09/06 03:38:20;;;;;;;8.63;3.63;;;12.10;99.90;;;;;;5015138;28;20071;-67
2023/09/06 03:40:46;;;;;;;6.03;4.20;;;12.10;99.90;;;;;;5012980;28;20260;-68
2023/09/06 03:43:16;;;;;;;4.50;3.50;;;12.10;99.90;;;;;;5021342;28;20021;-66
2023/09/06 03:45:45;;;;;;;5.85;3.45;;;12.00;99.90;;;;;;5029979;28;20029;-67
2023/09/06 03:48:12;;;;;;;4.25;3.25;;;12.00;99.90;;;;;;5015129;28;20033;-67
2023/09/06 03:50:38;;;;;;;4.38;3.47;;;12.00;99.90;;;;;;5013674;28;20109;-67
2023/09/06 03:53:04;;;;;;;4.55;3.80;;;12.00;99.90;;;;;;5016082;28;20116;-67
2023/09/06 03:55:32;;;;;;;4.90;3.70;;;11.90;99.90;;;;;;5012719;28;20022;-67
2023/09/06 03:58:07;;;;;;;5.18;3.90;;;12.00;99.90;;;;;;5020642;28;20018;-68
2023/09/06 04:00:32;;;;;;;4.45;3.75;;;11.90;99.90;;;;;;5020900;28;20034;-68
2023/09/06 04:02:58;;;;;;;7.47;3.90;;;11.90;99.90;;;;;;5017530;28;20115;-67
2023/09/06 04:05:28;;;;;;;6.25;4.75;;;11.90;99.90;;;;;;5013449;28;20031;-67
2023/09/06 04:07:55;;;;;;;4.72;4.03;;;11.90;99.90;;;;;;5012274;28;20056;-67
2023/09/06 04:10:23;;;;;;;5.90;4.25;;;11.90;99.90;;;;;;5020207;28;20079;-67
2023/09/06 04:12:53;;;;;;;4.18;3.65;;;11.90;99.90;;;;;;5016838;28;20033;-67
2023/09/06 04:15:22;;;;;;;6.13;4.25;;;11.90;99.90;;;;;;5013058;28;20029;-66
2023/09/06 04:17:59;;;;;;;5.10;4.45;;;11.90;99.90;;;;;;5012277;28;20579;-66
2023/09/06 04:20:31;;;;;;;4.88;3.80;;;11.80;99.90;;;;;;5015215;28;20032;-67
2023/09/06 04:22:57;;;;;;;4.22;3.83;;;11.80;99.90;;;;;;5012447;28;20025;-67
2023/09/06 04:25:23;;;;;;;5.78;3.58;;;11.80;99.90;;;;;;5015792;28;20027;-67
2023/09/06 04:27:55;;;;;;;5.30;4.07;;;11.80;99.90;;;;;;5020006;28;20108;-67
2023/09/06 04:30:28;;;;;;;5.13;3.75;;;11.80;99.90;;;;;;5011819;28;20033;-67
2023/09/06 04:32:57;;;;;;;6.22;3.90;;;11.80;99.90;;;;;;5015274;28;20087;-67
2023/09/06 04:35:31;;;;;;;5.95;4.43;;;11.90;99.90;;;;;;5020291;28;20025;-67
2023/09/06 04:37:57;;;;;;;4.40;3.88;;;11.80;99.90;;;;;;5013797;28;20042;-67
2023/09/06 04:40:22;;;;;;;5.95;3.80;;;11.80;99.90;;;;;;5011532;28;20060;-67
2023/09/06 04:42:48;;;;;;;4.85;4.20;;;11.90;99.90;;;;;;5017059;28;20109;-68
2023/09/06 04:45:14;;;;;;;4.70;4.00;;;11.90;99.90;;;;;;5017677;28;20083;-67
2023/09/06 04:47:43;;;;;;;5.90;4.63;;;11.90;99.90;;;;;;5020885;28;20036;-67
2023/09/06 04:50:11;;;;;;;5.80;4.18;;;12.00;99.90;;;;;;5021871;28;20097;-67
2023/09/06 04:52:42;;;;;;;6.43;4.63;;;12.00;99.90;;;;;;5016551;28;20105;-67
2023/09/06 04:55:08;;;;;;;4.72;3.92;;;12.00;99.90;;;;;;5020885;28;20030;-66
2023/09/06 04:57:36;;;;;;;6.00;4.57;;;12.00;99.90;;;;;;5010882;28;20136;-67
2023/09/06 05:00:06;;;;;;;4.32;3.92;;;12.10;99.90;;;;;;5015757;28;20084;-67
2023/09/06 05:02:32;;;;;;;6.15;4.05;;;12.10;99.90;;;;;;5011441;28;20048;-63
2023/09/06 05:04:59;;;;;;;8.48;4.28;;;12.10;99.90;;;;;;5008149;28;20514;-66
2023/09/06 05:07:24;;;;;;;5.57;4.63;;;12.20;99.90;;;;;;5009656;28;20049;-66
2023/09/06 05:09:53;;;;;;;6.03;4.65;;;12.20;99.90;;;;;;5014006;28;20204;-66
2023/09/06 05:12:21;;;;;;;5.18;4.00;;;12.30;99.90;;;;;;5014704;28;20537;-65
2023/09/06 05:14:47;;;;;;;5.47;4.25;;;12.30;99.90;;;;;;5008580;28;20489;-66
2023/09/06 05:17:13;;;;;;;6.15;4.70;;;12.40;99.90;;;;;;5012758;28;20454;-67
2023/09/06 05:19:38;;;;;;;7.85;4.50;;;12.50;99.90;;;;;;5010873;28;20030;-67
2023/09/06 05:22:04;;;;;;;7.10;5.50;;;12.70;99.90;;;;;;5012494;28;20233;-66
2023/09/06 05:24:29;;;;;;;5.05;4.30;;;13.30;99.90;;;;;;5014980;28;20025;-66
2023/09/06 05:26:55;;;;;;;4.95;4.13;;;14.40;99.90;;;;;;5015078;28;20485;-66
2023/09/06 05:29:20;;;;;;;3.92;3.50;;;15.50;99.90;;;;;;5016115;28;20044;-65
2023/09/06 05:31:46;;;;;;;4.38;3.67;;;16.60;99.90;;;;;;5018301;28;20489;-65
2023/09/06 05:34:11;;;;;;;4.07;3.63;;;17.70;99.90;;;;;;5018919;28;20122;-65
2023/09/06 05:36:37;;;;;;;5.25;3.60;;;18.50;99.90;;;;;;5019786;28;20045;-65
2023/09/06 05:39:06;;;;;;;5.05;3.33;;;19.40;98.80;;;;;;5018848;28;20022;-65
2023/09/06 05:41:32;;;;;;;3.90;3.50;;;20.30;97.50;;;;;;5018819;28;20033;-64
2023/09/06 05:43:57;;;;;;;3.53;3.22;;;21.10;94.80;;;;;;5018885;28;20030;-63
2023/09/06 05:46:23;;;;;;;6.43;3.53;;;21.70;92.60;;;;;;5020076;28;20025;-63
2023/09/06 05:48:48;;;;;;;4.63;3.50;;;22.40;91.20;;;;;;5016934;28;20025;-63
2023/09/06 05:51:14;;;;;;;3.67;3.30;;;23.00;89.90;;;;;;5022678;28;20037;-63
2023/09/06 05:53:39;;;;;;;5.30;3.63;;;23.70;88.50;;;;;;5022668;28;20025;-64
2023/09/06 05:56:05;;;;;;;5.00;3.40;;;24.40;86.20;;;;;;5022222;28;20025;-63
2023/09/06 05:58:37;;;;;;;4.57;4.10;;;25.00;82.90;;;;;;5022336;28;20091;-62
2023/09/06 06:01:03;;;;;;;3.58;3.28;;;25.60;80.90;;;;;;5021036;28;20055;-67
2023/09/06 06:03:29;;;;;;;3.95;3.15;;;26.10;78.30;;;;;;5022130;28;20489;-58
2023/09/06 06:05:55;;;;;;;3.95;3.45;;;26.60;75.70;;;;;;5021137;28;20026;-58
2023/09/06 06:08:20;;;;;;;3.58;2.83;;;27.10;73.30;;;;;;5021957;28;20448;-57
2023/09/06 06:10:46;;;;;;;3.65;3.17;;;27.50;71.50;;;;;;5022059;28;20026;-57
2023/09/06 06:13:12;;;;;;;3.25;2.72;;;27.80;69.70;;;;;;5026090;28;20072;-57
2023/09/06 06:15:38;;;;;;;4.53;3.42;;;28.20;67.40;;;;;;5030286;28;20025;-56
2023/09/06 06:18:05;;;;;;;4.25;3.35;;;28.50;65.60;;;;;;5021988;28;20108;-57
2023/09/06 06:20:31;;;;;;;5.03;3.00;;;28.90;63.00;;;;;;5022176;28;20101;-57
2023/09/06 06:22:57;;;;;;;5.03;3.08;;;29.50;62.50;;;;;;5023620;28;20057;-57
2023/09/06 06:25:23;;;;;;;3.40;3.03;;;29.90;58.20;;;;;;5025685;28;20030;-57
2023/09/06 06:27:51;;;;;;;5.82;3.28;;;30.40;55.90;;;;;;5025819;28;20087;-58
2023/09/06 06:30:18;;;;;;;4.10;3.20;;;30.90;52.90;;;;;;5028150;28;20485;-57
2023/09/06 06:32:43;;;;;;;4.90;3.13;;;31.30;50.70;;;;;;5027717;28;20394;-58
2023/09/06 06:35:11;;;;;;;4.97;3.35;;;31.50;48.60;;;;;;5021765;28;20040;-57
2023/09/06 06:37:38;;;;;;;4.63;3.63;;;31.90;46.70;;;;;;5019915;28;20072;-57
2023/09/06 06:40:05;;;;;;;5.82;3.55;;;32.20;44.00;;;;;;5026415;28;20025;-57
2023/09/06 06:42:34;;;;;;;5.75;3.75;;;32.70;42.80;;;;;;5019755;28;20025;-57
2023/09/06 06:45:00;;;;;;;3.72;3.17;;;33.20;41.00;;;;;;5015842;28;20037;-57
2023/09/06 06:47:26;;;;;;;4.07;2.50;;;33.40;39.30;;;;;;5024043;28;20029;-57
2023/09/06 06:49:52;;;;;;;4.88;3.13;;;33.70;38.10;;;;;;5024715;28;20057;-56
2023/09/06 06:52:18;;;;;;;3.95;3.10;;;33.70;36.10;;;;;;5023563;28;20108;-58
2023/09/06 06:54:45;;;;;;;6.00;3.22;;;34.10;35.30;;;;;;5019222;28;20124;-55
2023/09/06 06:57:11;;;;;;;4.70;3.63;;;34.10;28.70;;;;;;5023982;28;20083;-58
2023/09/06 06:59:37;;;;;;;4.38;3.03;;;33.80;31.30;;;;;;5023213;28;20385;-58
2023/09/06 07:02:02;;;;;;;3.50;3.20;;;34.10;30.00;;;;;;5025366;28;20079;-57
2023/09/06 07:04:28;;;;;;;5.50;3.33;;;33.90;28.60;;;;;;5023475;28;20037;-57
2023/09/06 07:06:53;;;;;;;3.92;3.17;;;33.80;28.20;;;;;;5017079;28;20067;-58
2023/09/06 07:09:19;;;;;;;4.00;3.35;;;33.80;27.60;;;;;;5029847;28;20087;-57
2023/09/06 07:11:44;;;;;;;4.57;2.92;;;34.20;26.60;;;;;;5019672;28;20420;-58
2023/09/06 07:14:10;;;;;;;3.85;2.80;;;34.50;25.80;;;;;;5022968;28;20069;-57
2023/09/06 07:16:35;;;;;;;3.78;2.78;;;34.90;25.10;;;;;;5020841;28;20029;-58
2023/09/06 07:19:01;;;;;;;3.65;2.95;;;35.30;24.50;;;;;;5020825;28;20032;-58
2023/09/06 07:21:28;;;;;;;2.85;2.65;;;35.50;23.70;;;;;;5025023;28;20107;-58
2023/09/06 07:23:54;;;;;;;3.65;2.78;;;35.80;23.00;;;;;;5020833;28;20018;-58
2023/09/06 07:26:21;;;;;;;2.75;2.55;;;35.80;22.50;;;;;;5024569;28;20028;-57
2023/09/06 07:28:47;;;;;;;6.63;3.05;;;35.70;22.70;;;;;;5022629;28;20437;-57
2023/09/06 07:31:14;;;;;;;3.28;2.72;;;35.10;22.20;;;;;;5020391;28;20042;-58
2023/09/06 07:33:39;;;;;;;6.00;2.88;;;35.10;22.30;;;;;;5020604;28;20505;-58
2023/09/06 07:36:06;;;;;;;4.72;3.10;;;35.00;20.20;;;;;;5020508;28;20044;-58
2023/09/06 07:38:31;;;;;;;4.30;3.30;;;34.30;21.60;;;;;;5017487;28;20113;-58
2023/09/06 07:40:57;;;;;;;3.05;2.65;;;34.00;22.00;;;;;;5023203;28;20104;-57
2023/09/06 07:43:23;;;;;;;3.58;3.17;;;33.90;22.00;;;;;;5018264;28;20030;-59
2023/09/06 07:45:49;;;;;;;4.25;3.05;;;33.40;21.70;;;;;;5020884;28;20115;-58
2023/09/06 07:48:14;;;;;;;4.32;3.05;;;33.40;22.10;;;;;;5021675;28;20514;-59
2023/09/06 07:50:41;;;;;;;7.65;3.30;;;33.70;21.90;;;;;;5021103;28;20231;-57
2023/09/06 07:53:06;;;;;;;4.60;3.10;;;33.70;21.10;;;;;;5017935;28;20124;-58
2023/09/06 07:55:32;;;;;;;3.67;3.20;;;33.30;21.30;;;;;;5023051;28;20032;-58
2023/09/06 07:57:57;;;;;;;4.07;3.50;;;33.10;21.20;;;;;;5017947;28;20029;-58
2023/09/06 08:00:23;;;;;;;6.82;3.40;;;33.10;21.20;;;;;;5020484;28;20029;-57
2023/09/06 08:02:48;;;;;;;3.35;2.88;;;33.10;21.40;;;;;;5021117;28;20542;-59
2023/09/06 08:05:16;;;;;;;5.18;2.92;;;32.90;21.80;;;;;;5020729;28;20490;-58
2023/09/06 08:07:42;;;;;;;4.43;3.08;;;32.90;21.50;;;;;;5019987;28;20541;-58
2023/09/06 08:10:09;;;;;;;3.63;3.15;;;32.90;21.20;;;;;;5019749;28;20136;-58
2023/09/06 08:12:36;;;;;;;3.42;3.13;;;32.90;21.20;;;;;;5023821;28;20486;-57
2023/09/06 08:15:01;;;;;;;3.13;2.83;;;32.80;21.70;;;;;;5010325;28;20183;-58
2023/09/06 08:17:27;;;;;;;3.38;3.00;;;32.90;20.80;;;;;;5022525;28;20029;-58
2023/09/06 08:19:53;;;;;;;3.20;2.70;;;32.20;20.10;;;;;;5018179;28;20034;-57
2023/09/06 08:22:18;;;;;;;3.55;2.97;;;31.90;21.30;;;;;;5021585;28;20973;-58
2023/09/06 08:24:44;;;;;;;4.00;3.28;;;31.70;21.30;;;;;;5021661;28;20025;-57
2023/09/06 08:27:09;;;;;;;3.88;2.83;;;31.20;22.00;;;;;;5019206;28;20045;-58
2023/09/06 08:29:35;;;;;;;4.18;3.10;;;31.20;21.60;;;;;;5018121;28;20018;-58
2023/09/06 08:32:00;;;;;;;3.33;3.03;;;31.10;22.00;;;;;;5021918;28;20526;-58
2023/09/06 08:34:26;;;;;;;5.10;3.20;;;31.30;21.60;;;;;;5021349;28;20040;-58
2023/09/06 08:36:51;;;;;;;6.72;3.30;;;31.00;22.00;;;;;;5019783;28;20481;-57
2023/09/06 08:39:17;;;;;;;3.55;3.05;;;31.10;22.10;;;;;;5022075;28;20057;-56
2023/09/06 08:41:47;;;;;;;3.03;2.72;;;30.90;21.40;;;;;;5025799;28;20033;-58
2023/09/06 08:44:18;;;;;;;3.85;3.42;;;30.50;20.40;;;;;;5019656;28;20034;-58
2023/09/06 08:46:46;;;;;;;4.22;3.38;;;29.90;22.20;;;;;;5013350;28;20044;-58
2023/09/06 08:49:13;;;;;;;4.30;3.42;;;29.50;22.20;;;;;;5022220;28;20020;-54
2023/09/06 08:51:39;;;;;;;3.42;3.13;;;29.80;22.60;;;;;;5013070;28;20022;-57
2023/09/06 08:54:05;;;;;;;4.47;3.45;;;30.10;22.30;;;;;;5019273;28;20035;-58
2023/09/06 08:56:32;;;;;;;7.25;3.53;;;30.30;21.70;;;;;;5021091;28;20030;-56
2023/09/06 08:58:59;;;;;;;3.50;3.13;;;30.20;21.60;;;;;;5018899;28;20041;-58
2023/09/06 09:01:25;;;;;;;4.30;3.20;;;30.20;21.50;;;;;;5014002;28;20022;-56
2023/09/06 09:03:51;;;;;;;4.10;3.45;;;30.20;21.80;;;;;;5023529;28;20025;-57
2023/09/06 09:06:16;;;;;;;5.38;3.70;;;29.70;21.30;;;;;;5020992;28;20106;-57
2023/09/06 09:08:41;;;;;;;3.97;3.50;;;29.60;21.70;;;;;;5017524;28;20026;-58
2023/09/06 09:11:13;;;;;;;4.82;3.78;;;29.90;21.60;;;;;;5021375;28;20022;-58
2023/09/06 09:13:39;;;;;;;6.88;3.42;;;30.10;21.40;;;;;;5018836;28;20061;-64
2023/09/06 09:16:09;;;;;;;4.75;4.00;;;30.00;21.90;;;;;;5020860;28;20021;-64
2023/09/06 09:18:37;;;;;;;6.85;3.67;;;30.20;21.20;;;;;;5016759;28;20029;-64
2023/09/06 09:21:05;;;;;;;3.85;3.55;;;30.30;21.40;;;;;;5019280;28;20104;-64
2023/09/06 09:23:32;;;;;;;4.95;3.22;;;30.20;20.70;;;;;;5015117;28;20061;-57
2023/09/06 09:25:58;;;;;;;4.40;3.45;;;30.00;20.90;;;;;;5017488;28;20036;-58
2023/09/06 09:28:23;;;;;;;7.68;4.47;;;30.10;20.80;;;;;;5021444;28;20029;-57
2023/09/06 09:30:50;;;;;;;3.80;3.40;;;29.60;21.00;;;;;;5022659;28;20114;-58
2023/09/06 09:33:16;;;;;;;5.53;3.72;;;29.80;21.00;;;;;;5022573;28;20090;-56
2023/09/06 09:35:43;;;;;;;4.78;3.63;;;30.10;20.50;;;;;;5033065;28;20126;-57
2023/09/06 09:38:12;;;;;;;7.15;3.88;;;30.30;20.50;;;;;;5023075;28;20098;-56
2023/09/06 09:40:37;;;;;;;5.50;3.45;;;30.30;20.50;;;;;;5022563;28;20026;-57
2023/09/06 09:43:06;;;;;;;6.55;3.83;;;30.20;20.30;;;;;;5022551;28;20982;-57
2023/09/06 09:45:43;;;;;;;4.82;3.75;;;30.10;20.30;;;;;;5022565;28;20032;-58
2023/09/06 09:48:09;;;;;;;4.18;3.08;;;30.00;20.40;;;;;;5020419;28;20099;-57
2023/09/06 09:50:36;;;;;;;5.35;4.00;;;30.20;20.70;;;;;;5022369;28;20496;-57
2023/09/06 09:53:07;;;;;;;5.25;3.58;;;29.80;19.80;;;;;;5024582;28;20041;-56
2023/09/06 09:55:35;;;;;;;4.80;3.97;;;29.80;20.20;;;;;;5027848;28;20025;-56
2023/09/06 09:58:05;;;;;;;5.53;4.45;;;29.80;20.40;;;;;;5022406;28;20494;-57
2023/09/06 10:00:32;;;;;;;4.40;3.95;;;29.60;20.90;;;;;;5022134;28;20032;-56
2023/09/06 10:02:59;;;;;;;4.78;4.05;;;29.10;21.10;;;;;;5022087;28;20382;-57
2023/09/06 10:05:29;;;;;;;5.47;3.67;;;29.20;21.10;;;;;;5022133;28;20026;-57
2023/09/06 10:07:56;;;;;;;4.18;3.78;;;29.40;20.90;;;;;;5022056;28;20032;-58
2023/09/06 10:10:24;;;;;;;8.15;4.00;;;29.40;20.70;;;;;;5021958;28;20017;-56
2023/09/06 10:12:51;;;;;;;4.63;3.85;;;29.40;20.70;;;;;;5026210;28;20109;-56
2023/09/06 10:15:23;;;;;;;6.50;4.47;;;29.20;20.60;;;;;;5018935;28;20044;-55
2023/09/06 10:17:50;;;;;;;4.88;4.25;;;28.70;20.60;;;;;;5018844;28;20029;-56
2023/09/06 10:20:15;;;;;;;7.10;4.20;;;28.40;21.10;;;;;;5018937;28;20049;-57
2023/09/06 10:22:43;;;;;;;5.10;3.95;;;28.10;21.40;;;;;;5025721;28;20567;-56
2023/09/06 10:25:10;;;;;;;4.95;3.90;;;28.00;21.70;;;;;;5021875;28;20421;-56
2023/09/06 10:27:46;;;;;;;6.28;3.65;;;28.00;21.90;;;;;;5026182;28;20489;-57
2023/09/06 10:30:17;;;;;;;5.55;3.67;;;28.10;21.50;;;;;;5026612;28;20074;-57
2023/09/06 10:32:43;;;;;;;6.28;4.03;;;28.10;21.50;;;;;;5025629;28;20049;-56
2023/09/06 10:35:29;;;;;;;6.55;4.20;;;28.10;22.30;;;;;;5021694;28;20099;-57
2023/09/06 10:38:00;;;;;;;;;;;27.80;22.30;;;;;;5023004;28;20288;-58
2023/09/06 10:40:49;;;;;;;5.20;3.30;;;27.50;22.10;;;;;;5020917;28;19995;-56
2023/09/06 10:43:19;;;;;;;5.00;3.35;;;27.40;23.40;;;;;;5017819;28;20417;-57
2023/09/06 10:46:18;;;;;;;3.85;3.40;;;27.40;22.50;;;;;;5022456;28;20034;-54
2023/09/06 10:49:17;;;;;;;5.82;3.83;;;27.40;23.40;;;;;;5025247;28;20103;-57
2023/09/06 10:51:58;;;;;;;5.25;3.97;;;27.40;23.30;;;;;;5016004;28;20433;-57
2023/09/06 10:54:34;;;;;;;3.30;3.00;;;27.50;23.40;;;;;;5013957;28;20493;-57
2023/09/06 10:57:02;;;;;;;3.30;3.00;;;27.50;22.50;;;;;;5017388;28;20017;-57
2023/09/06 10:59:28;;;;;;;10.25;4.03;;;27.60;22.30;;;;;;5015691;28;20018;-56
2023/09/06 11:02:15;;;;;;;5.30;4.10;;;27.50;22.50;;;;;;5014776;28;20066;-57
2023/09/06 11:04:42;;;;;;;4.60;3.70;;;27.40;23.10;;;;;;5014115;28;20450;-57
2023/09/06 11:07:11;;;;;;;5.05;3.95;;;27.30;22.60;;;;;;5015127;28;20093;-53
2023/09/06 11:09:44;;;;;;;4.68;3.35;;;27.30;23.40;;;;;;5016018;28;20026;-56
2023/09/06 11:12:11;;;;;;;5.25;3.53;;;27.20;23.00;;;;;;5015444;28;20077;-54
2023/09/06 11:14:37;;;;;;;6.05;3.38;;;27.30;22.90;;;;;;5014473;28;20021;-57
2023/09/06 11:17:03;;;;;;;6.38;3.50;;;27.30;24.00;;;;;;5019866;28;20026;-56
2023/09/06 11:19:31;;;;;;;6.80;3.15;;;27.30;22.90;;;;;;5014595;28;20033;-56
2023/09/06 11:22:23;;;;;;;4.82;3.78;;;27.30;23.10;;;;;;5011411;28;20044;-56
2023/09/06 11:24:49;;;;;;;5.38;3.65;;;27.30;22.40;;;;;;5011200;28;20113;-57
2023/09/06 11:27:19;;;;;;;5.10;3.65;;;27.20;22.90;;;;;;5012013;28;20446;-57
2023/09/06 11:29:47;;;;;;;4.13;3.28;;;27.20;22.30;;;;;;5016981;28;20022;-57
2023/09/06 11:32:13;;;;;;;5.03;3.80;;;27.20;22.20;;;;;;5019134;28;20045;-56
2023/09/06 11:34:45;;;;;;;6.47;4.22;;;27.10;22.40;;;;;;5015864;28;20116;-57
2023/09/06 11:37:14;;;;;;;4.20;3.60;;;27.10;22.10;;;;;;5017456;28;20025;-57
2023/09/06 11:39:40;;;;;;;4.43;3.10;;;27.10;22.20;;;;;;5019648;28;20022;-57
2023/09/06 11:42:15;;;;;;;4.35;3.40;;;27.00;21.90;;;;;;5017250;28;20528;-57
2023/09/06 11:44:50;;;;;;;6.67;3.60;;;27.00;22.00;;;;;;5013903;28;20029;-53
2023/09/06 11:47:18;;;;;;;4.00;3.08;;;26.90;22.60;;;;;;5012801;28;20407;-57
2023/09/06 11:49:45;;;;;;;3.90;3.33;;;27.00;23.00;;;;;;5019820;28;20060;-56
2023/09/06 11:52:19;;;;;;;5.10;3.20;;;26.90;22.00;;;;;;5012247;28;20056;-57
2023/09/06 11:54:49;;;;;;;4.72;3.30;;;26.90;22.00;;;;;;5012072;28;20038;-56
2023/09/06 11:57:27;;;;;;;4.78;3.45;;;27.00;22.30;;;;;;5017234;28;20029;-57
2023/09/06 11:59:57;;;;;;;4.30;3.00;;;27.10;22.00;;;;;;5022779;28;20493;-56
2023/09/06 12:02:30;;;;;;;3.38;3.05;;;27.00;21.40;;;;;;5017809;28;20719;-57
2023/09/06 12:05:00;;;;;;;6.88;3.50;;;27.00;21.70;;;;;;5018325;28;20065;-63
2023/09/06 12:07:25;;;;;;;4.50;3.40;;;27.00;21.50;;;;;;5022131;28;20022;-65
2023/09/06 12:09:54;;;;;;;5.55;3.50;;;27.00;21.80;;;;;;5018146;28;20432;-64
2023/09/06 12:12:20;;;;;;;6.40;3.50;;;27.10;21.30;;;;;;5018405;28;20022;-65
2023/09/06 12:14:45;;;;;;;4.55;3.42;;;27.00;21.50;;;;;;5020343;28;20444;-64
2023/09/06 12:17:11;;;;;;;3.88;3.08;;;27.00;21.90;;;;;;5021762;28;20021;-65
2023/09/06 12:19:37;;;;;;;4.15;3.30;;;27.00;21.90;;;;;;5019999;28;20036;-64
2023/09/06 12:22:05;;;;;;;4.65;3.20;;;27.00;22.30;;;;;;5015129;28;20036;-65
2023/09/06 12:24:31;;;;;;;4.22;3.45;;;27.00;22.00;;;;;;5020935;28;20486;-65
2023/09/06 12:26:58;;;;;;;3.97;3.15;;;27.10;22.60;;;;;;5016016;28;20021;-64
2023/09/06 12:29:24;;;;;;;4.65;3.30;;;27.10;22.30;;;;;;5015741;28;20038;-64
2023/09/06 12:31:50;;;;;;;4.35;3.53;;;27.10;22.00;;;;;;5019981;28;20574;-65
2023/09/06 12:34:16;;;;;;;6.30;3.92;;;27.10;22.00;;;;;;5017819;28;20018;-64
2023/09/06 12:36:42;;;;;;;8.13;3.90;;;27.20;22.10;;;;;;5018383;28;20025;-65
2023/09/06 12:39:07;;;;;;;6.35;3.45;;;27.20;22.00;;;;;;5020735;28;20025;-64
2023/09/06 12:41:32;;;;;;;4.75;3.13;;;27.20;22.40;;;;;;5025891;28;20038;-65
2023/09/06 12:43:58;;;;;;;5.68;3.60;;;27.20;22.30;;;;;;5019925;28;20057;-65
2023/09/06 12:46:23;;;;;;;4.07;3.67;;;27.20;22.80;;;;;;5020020;28;20057;-64
2023/09/06 12:48:49;;;;;;;4.55;3.63;;;27.20;22.70;;;;;;5013499;28;20036;-65
2023/09/06 12:51:14;;;;;;;4.50;3.22;;;27.20;22.50;;;;;;5012745;28;20060;-64